Decoded Metar for KDEN (DENVER in CO, USA) (IATA:DEN) | Meteo·Mobile Aviation Weather
aviador You're here:

KDEN Decoded Metar

DENVER in CO, USA
Report Time2019-03-21 01:53:00
UTC Time2019-03-21 02:03:04
Flight Rules vfr VFR
Wind160° at 03 kt
W.Decomp.*RWY 16: 3.0 kt HW 0.4 kt LCW
RWY 17: 2.9 kt HW 0.9 kt LCW
RWY 08: 0.9 kt HW 2.9 kt RCW
RWY 07: 0.4 kt HW 3.0 kt RCW
W.Rank160° ranks 6
Current wind is below 160° avg. (9.7)
Visibility9999 m
Phenomena:N/A
Clouds:Few 250 Hf
Expected CloudBase > 6,400 ft AGL from Temp-Dew spread
CeilingNone
Temp10°C (ISA +6)
Dew Point-6°C (32% RH)
AAT6.2°C
QNH1024 hPa
Density Alt5,741 ft
Elevation5,381 ft
Report Wrong Elevation
Raw Report
KDEN 210153Z 16003KT 10SM FEW250 10/M06 A3025 RMK AO2 SLP236
T01001061=

Extra information for KDEN:More info

Metar Taf Metar & Taf Last 4 Metars F.Rules Stats Wind Profile Meteogram Temp Stats Airport Information Weather charts Add Link Nearby VenuesMetar ALERT Operation Metar Decoded Social comments

AIRNAV info for KDEN